Time;durP1;ratioP1;P1;durP2;ratioP2;P2;SDS_P1;SDS_P2;PMS_P1;PMS_P2;Temp;Humidity;BMP_temperature;BMP_pressure;BME280_temperature;BME280_humidity;BME280_pressure;Samples;Min_cycle;Max_cycle;Signal;HPM_P1;HPM_P2
2022/10/11 00:01:44;;;;;;;10.90;8.10;;;;;;;13.53;100.00;98971.53;5078158;28;20043;-58
2022/10/11 00:04:09;;;;;;;11.02;8.07;;;;;;;13.45;100.00;98961.03;5092497;27;20063;-59
2022/10/11 00:06:36;;;;;;;11.05;7.30;;;;;;;13.55;100.00;98966.97;5093541;28;20115;-58
2022/10/11 00:09:03;;;;;;;11.20;7.70;;;;;;;13.48;100.00;98967.75;5081339;28;20111;-58
2022/10/11 00:11:29;;;;;;;11.85;8.40;;;;;;;13.42;100.00;98959.53;5089349;28;20035;-59
2022/10/11 00:13:54;;;;;;;12.40;8.35;;;;;;;13.41;100.00;98967.53;5082029;28;20032;-58
2022/10/11 00:16:19;;;;;;;14.77;8.68;;;;;;;13.52;100.00;98969.06;5072438;28;20040;-59
2022/10/11 00:18:45;;;;;;;12.63;8.48;;;;;;;13.53;100.00;98974.13;5088607;28;20028;-59
2022/10/11 00:21:13;;;;;;;10.48;7.55;;;;;;;13.51;100.00;98970.03;5092872;27;20039;-59
2022/10/11 00:23:39;;;;;;;11.00;7.60;;;;;;;13.45;100.00;98961.84;5083252;28;20140;-58
2022/10/11 00:26:07;;;;;;;11.27;8.07;;;;;;;13.48;100.00;98965.94;5089078;28;20024;-59
2022/10/11 00:28:33;;;;;;;11.55;7.45;;;;;;;13.50;100.00;98968.41;5092435;28;20022;-59
2022/10/11 00:30:58;;;;;;;11.55;8.30;;;;;;;13.52;100.00;98964.66;5085478;28;20055;-59
2022/10/11 00:33:24;;;;;;;12.52;7.75;;;;;;;13.47;100.00;98959.09;5090379;28;20067;-58
2022/10/11 00:35:50;;;;;;;11.55;7.55;;;;;;;13.45;100.00;98954.03;5098098;28;20277;-59
2022/10/11 00:38:16;;;;;;;14.40;8.18;;;;;;;13.43;100.00;98957.75;5091746;27;20598;-59
2022/10/11 00:40:42;;;;;;;12.70;7.82;;;;;;;13.41;100.00;98963.13;5088105;28;20027;-59
2022/10/11 00:43:21;;;;;;;11.55;7.88;;;;;;;13.11;100.00;98917.38;5084236;28;20028;-59
2022/10/11 00:46:12;;;;;;;10.65;7.28;;;;;;;13.46;100.00;98955.66;5084832;28;20647;-58
2022/10/11 00:48:44;;;;;;;11.63;7.10;;;;;;;13.40;100.00;98956.28;5082559;28;20043;-59
2022/10/11 00:51:17;;;;;;;12.18;8.00;;;;;;;13.49;100.00;98962.38;5084856;28;20027;-59
2022/10/11 00:53:43;;;;;;;11.45;7.45;;;;;;;13.27;100.00;98927.13;5069336;28;20036;-58
2022/10/11 00:56:20;;;;;;;11.25;6.97;;;;;;;13.42;100.00;98962.16;5086976;28;20462;-59
2022/10/11 00:58:45;;;;;;;11.38;7.82;;;;;;;13.33;100.00;98954.44;5062191;28;20124;-58
2022/10/11 01:01:11;;;;;;;9.82;7.28;;;;;;;13.39;100.00;98970.28;5094089;28;20218;-59
2022/10/11 01:03:37;;;;;;;10.52;7.70;;;;;;;13.33;100.00;98964.88;5091396;28;20039;-59
2022/10/11 01:06:03;;;;;;;13.13;7.85;;;;;;;13.31;100.00;98965.03;5092070;28;20078;-59
2022/10/11 01:08:29;;;;;;;11.07;7.28;;;;;;;13.22;100.00;98950.25;5098329;28;20760;-59
2022/10/11 01:10:54;;;;;;;13.60;7.95;;;;;;;13.05;100.00;98912.75;5091701;28;20742;-58
2022/10/11 01:13:48;;;;;;;10.32;7.53;;;;;;;13.33;100.00;98957.84;5093979;28;20068;-59
2022/10/11 01:16:36;;;;;;;12.27;7.22;;;;;;;13.32;100.00;98964.03;5088465;28;20118;-59
2022/10/11 01:19:34;;;;;;;9.95;7.95;;;;;;;13.28;100.00;98958.28;5085973;28;20470;-59
2022/10/11 01:22:18;;;;;;;11.52;7.50;;;;;;;13.31;100.00;98959.00;5081786;28;20069;-59
2022/10/11 01:25:14;;;;;;;9.30;7.05;;;;;;;13.11;100.00;98930.44;5087955;28;20032;-59
2022/10/11 01:27:48;;;;;;;15.52;6.97;;;;;;;13.25;100.00;98955.16;5088144;28;20020;-59
2022/10/11 01:30:24;;;;;;;11.05;7.53;;;;;;;13.26;100.00;98957.63;5089157;28;20069;-58
2022/10/11 01:33:25;;;;;;;10.80;7.25;;;;;;;13.36;100.00;98957.56;5088955;28;20055;-59
2022/10/11 01:36:06;;;;;;;9.38;6.80;;;;;;;13.00;100.00;98899.38;5083820;28;20119;-58
2022/10/11 01:38:39;;;;;;;11.07;7.57;;;;;;;13.16;100.00;98941.25;5093645;28;20118;-59
2022/10/11 01:41:09;;;;;;;10.10;7.38;;;;;;;13.21;100.00;98935.53;5089600;28;20759;-59
2022/10/11 01:43:36;;;;;;;11.02;7.07;;;;;;;13.24;100.00;98946.50;5093071;28;20024;-59
2022/10/11 01:46:01;;;;;;;10.45;7.40;;;;;;;13.15;100.00;98933.56;5090519;28;20024;-58
2022/10/11 01:48:27;;;;;;;9.63;7.22;;;;;;;13.17;100.00;98927.19;5102452;27;20548;-59
2022/10/11 01:50:54;;;;;;;10.88;7.22;;;;;;;13.12;100.00;98932.06;5072568;28;20089;-58
2022/10/11 01:53:28;;;;;;;12.35;7.28;;;;;;;13.15;100.00;98936.97;5090481;28;20050;-58
2022/10/11 01:56:04;;;;;;;11.35;7.60;;;;;;;12.92;100.00;98904.50;5086937;28;20027;-59
2022/10/11 01:59:00;;;;;;;10.35;7.00;;;;;;;13.16;100.00;98930.81;5091504;28;20068;-59
2022/10/11 02:01:41;;;;;;;11.50;7.82;;;;;;;13.15;100.00;98929.16;5096670;28;20092;-58
2022/10/11 02:04:37;;;;;;;10.15;6.93;;;;;;;13.13;100.00;98927.69;5086613;28;20035;-58
2022/10/11 02:07:30;;;;;;;11.77;7.10;;;;;;;13.17;100.00;98929.00;5099102;28;20451;-58
2022/10/11 02:10:18;;;;;;;13.63;7.97;;;;;;;13.13;100.00;98922.47;5099181;28;20127;-58
2022/10/11 02:12:50;;;;;;;9.88;7.50;;;;;;;12.84;100.00;98884.41;5095629;28;20297;-58
2022/10/11 02:15:16;;;;;;;9.75;6.35;;;;;;;13.05;100.00;98916.22;5090676;28;20036;-58
2022/10/11 02:17:48;;;;;;;11.35;7.10;;;;;;;13.06;100.00;98924.84;5079904;28;20034;-58
2022/10/11 02:20:18;;;;;;;10.93;7.18;;;;;;;12.97;100.00;98910.91;5092550;28;20042;-58
2022/10/11 02:22:44;;;;;;;;;;;;;;;13.00;100.00;98923.66;5092180;28;20026;-58
2022/10/11 02:25:12;;;;;;;10.80;7.07;;;;;;;13.09;100.00;98919.34;5097153;28;19947;-58
2022/10/11 02:27:39;;;;;;;10.50;7.53;;;;;;;12.98;100.00;98927.41;5090260;28;20072;-58
2022/10/11 02:30:06;;;;;;;8.82;6.57;;;;;;;13.01;100.00;98917.47;5091561;28;20883;-59
2022/10/11 02:32:32;;;;;;;11.45;7.22;;;;;;;12.74;100.00;98871.47;5096337;28;20027;-60
2022/10/11 02:34:59;;;;;;;12.05;6.65;;;;;;;12.99;100.00;98916.78;5091464;27;20122;-59
2022/10/11 02:37:49;;;;;;;9.40;6.45;;;;;;;13.01;100.00;98909.63;5096562;27;20169;-59
2022/10/11 02:40:20;;;;;;;10.63;6.85;;;;;;;13.04;100.00;98917.16;5087982;28;20119;-59
2022/10/11 02:42:53;;;;;;;10.23;6.45;;;;;;;13.01;100.00;98917.47;5099059;28;20073;-59
2022/10/11 02:45:23;;;;;;;14.73;7.22;;;;;;;12.96;100.00;98905.84;5086471;28;20093;-59
2022/10/11 02:47:49;;;;;;;10.05;7.05;;;;;;;12.83;100.00;98898.41;5097459;28;20488;-59
2022/10/11 02:50:14;;;;;;;12.68;6.88;;;;;;;12.94;100.00;98911.25;5092599;28;20032;-60
2022/10/11 02:52:40;;;;;;;11.95;6.63;;;;;;;12.94;100.00;98911.25;5094217;28;20081;-59
2022/10/11 02:55:06;;;;;;;10.85;6.47;;;;;;;12.91;100.00;98895.06;5094535;28;20032;-59
2022/10/11 02:57:31;;;;;;;12.13;7.70;;;;;;;12.74;100.00;98871.47;5090186;28;20122;-63
2022/10/11 02:59:57;;;;;;;11.60;7.20;;;;;;;12.94;100.00;98905.19;5097177;28;20107;-59
2022/10/11 03:02:22;;;;;;;11.32;7.25;;;;;;;12.92;100.00;98904.50;5089794;28;20508;-59
2022/10/11 03:04:48;;;;;;;12.05;7.20;;;;;;;12.89;100.00;98898.63;5093614;27;20122;-59
2022/10/11 03:07:13;;;;;;;11.20;6.60;;;;;;;12.67;100.00;98873.84;5092005;28;20784;-59
2022/10/11 03:09:39;;;;;;;10.52;6.55;;;;;;;12.92;100.00;98899.28;5081451;28;20035;-58
2022/10/11 03:12:05;;;;;;;9.20;6.45;;;;;;;12.92;100.00;98907.94;5098284;28;20027;-59
2022/10/11 03:14:30;;;;;;;10.05;6.40;;;;;;;12.89;100.00;98905.66;5090412;28;20103;-58
2022/10/11 03:16:55;;;;;;;9.98;6.43;;;;;;;12.88;100.00;98911.84;5087036;27;20139;-59
2022/10/11 03:19:21;;;;;;;11.07;7.10;;;;;;;12.79;100.00;98895.28;5101474;27;20031;-58
2022/10/11 03:21:46;;;;;;;13.48;6.68;;;;;;;12.78;100.00;98895.47;5093508;28;20039;-59
2022/10/11 03:24:12;;;;;;;9.95;6.10;;;;;;;12.62;100.00;98865.66;5099218;28;20039;-58
2022/10/11 03:26:37;;;;;;;9.43;6.82;;;;;;;12.84;100.00;98908.72;5100418;28;20038;-59
2022/10/11 03:29:03;;;;;;;11.15;6.95;;;;;;;12.79;100.00;98899.69;5093988;28;20379;-58
2022/10/11 03:31:28;;;;;;;9.90;6.75;;;;;;;12.61;100.00;98865.81;5094621;28;20035;-59
2022/10/11 03:33:53;;;;;;;9.45;6.78;;;;;;;12.76;100.00;98894.78;5096251;28;21400;-59
2022/10/11 03:36:19;;;;;;;11.88;7.43;;;;;;;12.82;100.00;98907.22;5087012;28;20027;-58
2022/10/11 03:38:44;;;;;;;10.18;7.15;;;;;;;12.81;100.00;98903.81;5073727;28;20046;-59
2022/10/11 03:41:10;;;;;;;9.50;6.43;;;;;;;12.73;100.00;98892.50;5091448;28;20040;-59
2022/10/11 03:43:35;;;;;;;9.52;6.68;;;;;;;12.84;100.00;98907.91;5076195;28;20032;-58
2022/10/11 03:46:00;;;;;;;11.65;6.63;;;;;;;12.76;100.00;98903.44;5096646;28;20032;-59
2022/10/11 03:48:26;;;;;;;11.57;6.55;;;;;;;12.58;100.00;98879.97;5097896;28;20033;-59
2022/10/11 03:50:51;;;;;;;12.50;6.72;;;;;;;12.74;100.00;98905.38;5093991;28;20032;-59
2022/10/11 03:53:17;;;;;;;10.57;7.07;;;;;;;12.71;100.00;98910.91;5092412;28;20105;-59
2022/10/11 03:55:42;;;;;;;9.15;6.65;;;;;;;12.45;100.00;98859.50;5088722;28;20066;-58
2022/10/11 03:58:08;;;;;;;11.85;6.90;;;;;;;12.74;100.00;98897.56;5084012;28;20055;-58
2022/10/11 04:00:34;;;;;;;11.60;7.30;;;;;;;12.72;100.00;98907.28;5093119;28;20036;-58
2022/10/11 04:02:59;;;;;;;10.68;6.88;;;;;;;12.74;100.00;98909.75;5073867;28;20036;-59
2022/10/11 04:05:25;;;;;;;10.65;6.97;;;;;;;12.71;100.00;98910.91;5090448;28;20059;-58
2022/10/11 04:07:51;;;;;;;12.57;7.57;;;;;;;12.43;100.00;98861.44;5073379;28;20094;-59
2022/10/11 04:10:16;;;;;;;10.38;5.45;;;;;;;12.50;100.00;98867.69;5089344;28;20035;-58
2022/10/11 04:12:42;;;;;;;10.35;6.82;;;;;;;12.70;100.00;98901.41;5076792;28;20160;-59
2022/10/11 04:15:11;;;;;;;12.48;6.35;;;;;;;12.69;100.00;98908.44;5091387;28;20875;-59
2022/10/11 04:17:37;;;;;;;11.95;6.80;;;;;;;12.70;100.00;98906.63;5080156;28;20031;-59
2022/10/11 04:20:02;;;;;;;8.55;6.07;;;;;;;12.71;100.00;98907.47;5083017;28;20051;-59
2022/10/11 04:22:27;;;;;;;10.57;6.75;;;;;;;12.81;100.00;98916.84;5101361;27;20031;-59
2022/10/11 04:24:53;;;;;;;12.13;7.03;;;;;;;12.65;100.00;98885.41;5096397;28;20046;-59
2022/10/11 04:27:18;;;;;;;11.73;6.25;;;;;;;12.73;100.00;98902.91;5092141;28;20134;-59
2022/10/11 04:29:44;;;;;;;10.20;7.13;;;;;;;12.79;100.00;98902.31;5092023;28;20097;-60
2022/10/11 04:32:09;;;;;;;12.90;6.90;;;;;;;12.76;100.00;98913.03;5090067;28;20111;-59
2022/10/11 04:34:35;;;;;;;11.02;6.63;;;;;;;12.71;100.00;98916.13;5089445;28;20031;-59
2022/10/11 04:37:00;;;;;;;10.02;6.60;;;;;;;12.70;100.00;98914.47;5098263;27;20032;-59
2022/10/11 04:39:25;;;;;;;11.57;6.75;;;;;;;12.65;100.00;98916.72;5094877;28;20019;-59
2022/10/11 04:41:51;;;;;;;9.25;6.72;;;;;;;12.56;100.00;98905.41;5095165;28;20040;-58
2022/10/11 04:44:16;;;;;;;10.70;7.15;;;;;;;12.42;100.00;98885.88;5094218;28;20377;-58
2022/10/11 04:46:41;;;;;;;13.27;7.40;;;;;;;12.66;100.00;98919.16;5096782;28;20122;-60
2022/10/11 04:49:07;;;;;;;12.23;6.60;;;;;;;12.39;100.00;98870.50;5084197;28;20414;-60
2022/10/11 04:51:33;;;;;;;8.88;6.38;;;;;;;12.65;100.00;98930.59;5089514;28;20461;-60
2022/10/11 04:53:58;;;;;;;9.20;6.75;;;;;;;12.40;100.00;98874.78;5080715;28;20123;-60
2022/10/11 04:56:24;;;;;;;10.45;6.63;;;;;;;12.52;100.00;98893.59;5091644;28;20126;-60
2022/10/11 04:58:53;;;;;;;9.95;6.72;;;;;;;12.68;100.00;98919.81;5093908;28;20035;-60
2022/10/11 05:01:19;;;;;;;11.90;6.95;;;;;;;12.21;100.00;98839.25;5089177;28;20028;-60
2022/10/11 05:03:44;;;;;;;9.88;6.90;;;;;;;12.73;100.00;98924.59;5091815;28;20114;-58
2022/10/11 05:06:10;;;;;;;11.02;6.75;;;;;;;12.50;100.00;98890.31;5089636;28;20034;-60
2022/10/11 05:08:35;;;;;;;11.10;6.13;;;;;;;12.66;100.00;98918.34;5093151;28;20933;-59
2022/10/11 05:11:03;;;;;;;8.77;6.55;;;;;;;12.43;100.00;98889.28;5093299;28;20441;-60
2022/10/11 05:13:29;;;;;;;10.60;6.80;;;;;;;12.61;100.00;98925.81;5090588;28;20036;-60
2022/10/11 05:15:55;;;;;;;9.25;6.78;;;;;;;12.56;100.00;98921.06;5086004;28;20024;-60
2022/10/11 05:18:20;;;;;;;8.88;6.95;;;;;;;12.64;100.00;98925.50;5088697;28;20036;-60
2022/10/11 05:20:46;;;;;;;10.25;6.80;;;;;;;12.40;100.00;98882.59;5079346;28;20660;-57
2022/10/11 05:23:12;;;;;;;9.32;6.43;;;;;;;12.66;100.00;98923.56;5094310;28;20027;-60
2022/10/11 05:25:38;;;;;;;10.10;6.60;;;;;;;12.55;100.00;98913.38;5096727;28;20030;-60
2022/10/11 05:28:04;;;;;;;10.32;6.75;;;;;;;12.58;100.00;98926.13;5075135;28;20039;-60
2022/10/11 05:30:29;;;;;;;10.43;6.82;;;;;;;12.54;100.00;98916.94;5074357;28;20087;-60
2022/10/11 05:32:54;;;;;;;11.90;7.22;;;;;;;12.62;100.00;98923.03;5071497;28;20031;-60
2022/10/11 05:35:20;;;;;;;12.45;6.35;;;;;;;12.66;100.00;98920.97;5089422;28;20032;-60
2022/10/11 05:37:45;;;;;;;10.85;7.65;;;;;;;12.31;100.00;98865.25;5080108;28;20041;-60
2022/10/11 05:40:11;;;;;;;10.13;5.90;;;;;;;12.57;100.00;98904.41;5098213;28;20754;-60
2022/10/11 05:42:37;;;;;;;9.68;6.65;;;;;;;12.54;100.00;98915.16;5084758;28;20532;-60
2022/10/11 05:45:05;;;;;;;9.85;6.88;;;;;;;12.56;100.00;98913.22;5090843;28;20032;-58
2022/10/11 05:47:30;;;;;;;10.43;6.95;;;;;;;12.63;100.00;98914.25;5094651;28;20032;-60
2022/10/11 05:49:55;;;;;;;10.60;6.35;;;;;;;12.65;100.00;98920.16;5093586;28;20032;-60
2022/10/11 05:52:21;;;;;;;9.82;6.30;;;;;;;12.63;100.00;98916.03;5107106;27;20027;-60
2022/10/11 05:54:47;;;;;;;9.07;6.75;;;;;;;12.63;100.00;98921.25;5092932;28;20032;-60
2022/10/11 05:57:13;;;;;;;11.85;6.70;;;;;;;12.65;100.00;98942.81;5090088;28;20031;-60
2022/10/11 05:59:38;;;;;;;9.07;6.60;;;;;;;12.73;100.00;98929.00;5098189;28;20031;-60
2022/10/11 06:02:04;;;;;;;9.30;6.22;;;;;;;12.73;100.00;98935.03;5097504;28;20486;-58
2022/10/11 06:04:29;;;;;;;11.88;7.00;;;;;;;12.73;100.00;98931.63;5095654;28;20069;-58
2022/10/11 06:06:54;;;;;;;9.73;6.18;;;;;;;12.67;100.00;98928.63;5102164;28;20062;-57
2022/10/11 06:09:20;;;;;;;8.45;6.20;;;;;;;12.74;100.00;98941.06;5075542;28;20084;-57
2022/10/11 06:11:45;;;;;;;8.70;6.13;;;;;;;12.62;100.00;98924.84;5078897;28;20147;-58
2022/10/11 06:14:11;;;;;;;10.25;5.90;;;;;;;12.74;100.00;98941.91;5093132;28;20023;-58
2022/10/11 06:16:36;;;;;;;9.57;5.88;;;;;;;12.68;100.00;98939.88;5114997;27;20177;-59
2022/10/11 06:19:03;;;;;;;8.88;6.55;;;;;;;12.70;100.00;98940.56;5090653;28;20478;-58
2022/10/11 06:21:28;;;;;;;11.25;6.00;;;;;;;12.73;100.00;98950.69;5087144;27;20036;-59
2022/10/11 06:23:54;;;;;;;11.13;6.47;;;;;;;12.76;100.00;98946.94;5092487;28;20039;-59
2022/10/11 06:26:19;;;;;;;10.40;5.85;;;;;;;12.77;100.00;98956.44;5089861;28;20024;-59
2022/10/11 06:28:45;;;;;;;8.50;5.80;;;;;;;12.73;100.00;98953.31;5095216;28;20119;-59
2022/10/11 06:31:11;;;;;;;8.35;5.95;;;;;;;12.77;100.00;98961.66;5095455;28;20040;-59
2022/10/11 06:33:37;;;;;;;8.88;5.72;;;;;;;12.76;100.00;98965.22;5095309;28;20120;-59
2022/10/11 06:36:05;;;;;;;9.48;6.20;;;;;;;12.78;100.00;98958.91;5099004;28;20048;-58
2022/10/11 06:38:31;;;;;;;8.98;6.28;;;;;;;12.82;100.00;98970.66;5089437;28;20406;-59
2022/10/11 06:40:56;;;;;;;8.73;5.80;;;;;;;12.81;100.00;98970.81;5092501;27;20039;-59
2022/10/11 06:43:21;;;;;;;8.20;5.88;;;;;;;12.81;100.00;98973.44;5091452;28;20055;-59
2022/10/11 06:45:47;;;;;;;9.43;6.45;;;;;;;12.75;100.00;98971.44;5091524;28;20036;-59
2022/10/11 06:48:13;;;;;;;12.98;6.30;;;;;;;12.48;100.00;98926.19;5080637;28;20530;-59
2022/10/11 06:50:39;;;;;;;8.77;5.78;;;;;;;12.64;100.00;98943.78;5095378;28;20084;-59
2022/10/11 06:53:07;;;;;;;12.68;5.95;;;;;;;12.82;100.00;98975.88;5075523;28;20133;-59
2022/10/11 06:55:33;;;;;;;9.83;6.40;;;;;;;12.90;100.00;98969.91;5096857;28;20127;-59
2022/10/11 06:57:59;;;;;;;9.15;6.32;;;;;;;12.79;100.00;98970.97;5083770;27;20031;-59
2022/10/11 07:00:24;;;;;;;7.80;5.70;;;;;;;12.80;100.00;98988.28;5101180;27;20028;-59
2022/10/11 07:02:49;;;;;;;9.32;5.68;;;;;;;12.80;100.00;98996.09;5096244;28;20798;-59
2022/10/11 07:05:16;;;;;;;10.02;5.63;;;;;;;12.79;100.00;98986.63;5088061;28;20501;-59
2022/10/11 07:07:41;;;;;;;10.55;5.85;;;;;;;12.80;100.00;98988.28;5098110;28;20024;-58
2022/10/11 07:10:07;;;;;;;8.38;5.75;;;;;;;12.89;100.00;98991.78;5091875;28;20023;-59
2022/10/11 07:12:33;;;;;;;8.27;5.63;;;;;;;12.95;100.00;99003.41;5089580;28;20484;-59
2022/10/11 07:14:58;;;;;;;7.75;5.60;;;;;;;12.96;100.00;99002.41;5095282;28;20663;-59
2022/10/11 07:17:24;;;;;;;9.00;5.70;;;;;;;12.92;100.00;99006.31;5089883;28;20101;-58
2022/10/11 07:19:50;;;;;;;9.52;6.40;;;;;;;12.99;100.00;99007.34;5079516;28;20156;-58
2022/10/11 07:22:15;;;;;;;10.20;5.90;;;;;;;12.98;100.00;99005.72;5099929;28;20031;-59
2022/10/11 07:24:41;;;;;;;8.93;6.63;;;;;;;12.70;100.00;98961.41;5091929;28;20028;-59
2022/10/11 07:27:06;;;;;;;8.90;6.00;;;;;;;13.11;100.00;99006.16;5092414;28;20036;-59
2022/10/11 07:29:31;;;;;;;8.50;5.55;;;;;;;13.14;100.00;99010.22;5077872;28;20496;-59
2022/10/11 07:31:57;;;;;;;7.97;5.50;;;;;;;12.81;100.00;98966.44;5090855;28;20024;-59
2022/10/11 07:34:22;;;;;;;8.43;5.97;;;;;;;12.82;100.00;98962.03;5096026;28;20020;-59
2022/10/11 07:36:48;;;;;;;12.43;6.68;;;;;;;13.12;100.00;99004.34;5087724;28;20035;-59
2022/10/11 07:39:14;;;;;;;7.50;4.85;;;;;;;13.22;100.00;99013.72;5080072;28;20050;-59
2022/10/11 07:41:39;;;;;;;7.90;5.25;;;;;;;13.23;100.00;99017.16;5098898;28;20035;-59
2022/10/11 07:44:05;;;;;;;7.70;5.25;;;;;;;13.28;100.00;99018.34;5076479;28;20034;-59
2022/10/11 07:46:30;;;;;;;9.45;5.82;;;;;;;13.31;100.00;99017.25;5091863;28;20035;-59
2022/10/11 07:48:56;;;;;;;7.43;4.90;;;;;;;13.24;100.00;99008.38;5067714;27;20032;-60
2022/10/11 07:51:22;;;;;;;10.52;6.25;;;;;;;13.03;100.00;98967.75;5099186;28;20030;-59
2022/10/11 07:53:53;;;;;;;8.02;5.35;;;;;;;13.14;100.00;98981.50;5088704;28;20012;-59
2022/10/11 07:56:21;;;;;;;8.52;4.72;;;;;;;13.41;100.00;99015.34;5080928;28;20036;-59
2022/10/11 07:58:56;;;;;;;9.27;4.57;;;;;;;13.41;100.00;99014.53;5072461;28;20020;-59
2022/10/11 08:01:22;;;;;;;10.43;5.25;;;;;;;13.46;100.00;99013.13;5094283;28;20043;-59
2022/10/11 08:03:48;;;;;;;7.82;5.30;;;;;;;13.43;100.00;99008.22;5070909;28;20124;-59
2022/10/11 08:06:16;;;;;;;8.88;4.88;;;;;;;13.23;100.00;98978.00;5096769;28;20030;-59
2022/10/11 08:08:41;;;;;;;10.80;5.25;;;;;;;13.50;100.00;99018.03;5090475;28;20062;-59
2022/10/11 08:11:07;;;;;;;8.10;4.97;;;;;;;13.40;100.00;99015.53;5092174;28;20081;-59
2022/10/11 08:13:34;;;;;;;8.40;5.47;;;;;;;13.24;100.00;98979.63;5095757;28;20016;-59
2022/10/11 08:15:59;;;;;;;10.40;5.07;;;;;;;13.49;100.00;99012.00;5083809;28;20030;-58
2022/10/11 08:18:25;;;;;;;7.25;4.90;;;;;;;13.44;100.00;99012.44;5090149;28;20080;-59
2022/10/11 08:20:50;;;;;;;9.38;4.72;;;;;;;13.55;100.00;99013.19;5088282;28;20031;-59
2022/10/11 08:23:17;;;;;;;12.38;5.13;;;;;;;13.49;100.00;99009.38;5093324;28;20047;-58
2022/10/11 08:25:44;;;;;;;8.68;5.28;;;;;;;13.27;100.00;98977.53;5089224;28;20054;-58
2022/10/11 08:28:15;;;;;;;8.60;5.65;;;;;;;13.51;100.00;99012.66;5091069;28;20054;-58
2022/10/11 08:30:49;;;;;;;8.68;5.82;;;;;;;13.45;100.00;99018.47;5078786;28;20027;-58
2022/10/11 08:33:16;;;;;;;10.35;5.82;;;;;;;13.49;100.00;99011.16;5096398;28;20023;-59
2022/10/11 08:35:41;;;;;;;9.73;5.25;;;;;;;13.39;100.00;99003.44;5089120;28;20032;-59
2022/10/11 08:38:07;;;;;;;9.20;5.18;;;;;;;13.41;100.00;99017.16;5097633;28;20032;-58
2022/10/11 08:40:54;;;;;;;16.98;5.70;;;;;;;13.22;100.00;98989.41;5061203;28;20048;-58
2022/10/11 08:43:31;;;;;;;9.80;5.82;;;;;;;13.39;100.00;99019.09;5102815;27;20031;-56
2022/10/11 08:45:58;;;;;;;9.40;5.18;;;;;;;13.44;100.00;99009.03;5089816;28;20036;-61
2022/10/11 08:48:47;;;;;;;8.98;5.68;;;;;;;13.48;100.00;99004.31;5077329;28;20035;-58
2022/10/11 08:51:18;;;;;;;8.18;5.53;;;;;;;13.51;100.00;99007.44;5095451;27;20027;-58
2022/10/11 08:53:43;;;;;;;11.73;5.20;;;;;;;13.46;100.00;99009.69;5096208;28;20683;-58
2022/10/11 08:56:11;;;;;;;6.95;4.80;;;;;;;13.44;100.00;99011.63;5094363;28;20043;-60
2022/10/11 08:58:53;;;;;;;8.77;5.32;;;;;;;13.50;100.00;98999.75;5078888;28;20126;-58
2022/10/11 09:01:21;;;;;;;8.27;4.65;;;;;;;13.58;100.00;99000.63;5077046;28;20115;-60
2022/10/11 09:03:48;;;;;;;9.73;5.43;;;;;;;13.60;100.00;98997.88;5079747;28;20027;-60
2022/10/11 09:06:22;;;;;;;8.95;6.07;;;;;;;13.68;100.00;98999.69;5095540;28;20042;-60
2022/10/11 09:09:00;;;;;;;13.05;7.95;;;;;;;13.74;100.00;98996.44;5093303;28;20028;-59
2022/10/11 09:11:43;;;;;;;10.43;5.90;;;;;;;13.76;100.00;98997.13;5085274;28;20042;-60
2022/10/11 09:14:29;;;;;;;9.35;4.65;;;;;;;13.80;100.00;98994.03;5091179;28;20482;-60
2022/10/11 09:17:10;;;;;;;10.13;4.70;;;;;;;13.83;100.00;98992.91;5096320;28;20501;-60
2022/10/11 09:19:51;;;;;;;12.35;5.13;;;;;;;13.69;100.00;98956.91;5094320;28;20022;-58
2022/10/11 09:22:25;;;;;;;8.57;4.45;;;;;;;13.96;100.00;98980.25;5101433;28;20032;-60
2022/10/11 09:25:21;;;;;;;8.57;5.20;;;;;;;14.01;100.00;98983.19;5094118;28;20859;-60
2022/10/11 09:27:57;;;;;;;9.20;4.85;;;;;;;14.04;100.00;98987.28;5093238;28;20102;-60
2022/10/11 09:30:23;;;;;;;6.93;4.68;;;;;;;14.09;100.00;98979.78;5081649;28;20914;-60
2022/10/11 09:33:11;;;;;;;9.20;4.72;;;;;;;14.15;100.00;98976.53;5101181;27;20127;-60
2022/10/11 09:35:50;;;;;;;9.60;4.90;;;;;;;14.16;100.00;98977.34;5095005;27;20501;-60
2022/10/11 09:38:38;;;;;;;7.70;4.10;;;;;;;14.15;100.00;98968.69;5079390;28;20591;-60
2022/10/11 09:41:41;;;;;;;7.82;4.60;;;;;;;14.30;100.00;98989.00;5063494;27;20044;-60
2022/10/11 09:44:07;;;;;;;7.35;4.43;;;;;;;14.14;100.00;98953.16;5087636;28;20035;-60
2022/10/11 09:46:40;;;;;;;9.15;4.50;;;;;;;14.41;100.00;98988.69;5094333;28;20731;-58
2022/10/11 09:49:13;;;;;;;8.00;4.45;;;;;;;14.46;100.00;98983.00;5093867;28;20568;-61
2022/10/11 09:51:42;;;;;;;6.95;4.47;;;;;;;14.25;100.00;98945.00;5081622;27;20723;-60
2022/10/11 09:54:09;;;;;;;9.10;4.40;;;;;;;14.61;100.00;98995.31;5084600;28;20047;-58
2022/10/11 09:56:40;;;;;;;6.97;4.28;;;;;;;14.65;99.90;98977.50;5081316;28;20150;-58
2022/10/11 09:59:23;;;;;;;7.15;4.47;;;;;;;14.67;100.00;98951.16;5091903;27;20043;-58
2022/10/11 10:02:09;;;;;;;6.70;4.13;;;;;;;14.86;96.81;98984.03;5084428;27;20026;-58
2022/10/11 10:04:52;;;;;;;7.22;4.25;;;;;;;14.88;95.28;98977.69;5067867;28;20040;-59
2022/10/11 10:07:19;;;;;;;6.03;3.88;;;;;;;14.86;95.91;98963.09;5069458;28;20074;-59
2022/10/11 10:09:44;;;;;;;9.15;4.30;;;;;;;15.07;94.11;98975.72;5084138;28;21014;-59
2022/10/11 10:12:12;;;;;;;7.32;3.72;;;;;;;15.19;92.29;98971.78;5090059;27;20422;-59
2022/10/11 10:14:39;;;;;;;7.57;4.35;;;;;;;15.29;92.19;98969.78;5091236;27;20238;-59
2022/10/11 10:17:07;;;;;;;8.80;4.22;;;;;;;15.29;91.97;98977.63;5090144;27;20040;-59
2022/10/11 10:19:46;;;;;;;10.48;3.97;;;;;;;15.36;91.16;98964.69;5081076;28;20673;-59
2022/10/11 10:22:24;;;;;;;8.30;3.60;;;;;;;15.47;91.54;98966.97;5089867;28;20027;-59
2022/10/11 10:24:50;;;;;;;7.93;4.40;;;;;;;15.48;93.27;98965.16;5100558;27;20424;-59
2022/10/11 10:27:24;;;;;;;6.63;4.20;;;;;;;15.54;94.54;98969.75;5082919;28;20036;-59
2022/10/11 10:30:08;;;;;;;7.57;4.40;;;;;;;15.56;95.51;98970.41;5082077;28;20514;-59
2022/10/11 10:32:59;;;;;;;7.85;4.68;;;;;;;15.73;96.96;98960.66;5084597;28;20031;-58
2022/10/11 10:35:54;;;;;;;8.63;4.68;;;;;;;15.96;94.72;98963.41;5091534;27;20123;-59
2022/10/11 10:38:27;;;;;;;9.32;4.95;;;;;;;16.04;94.57;98962.53;5087733;27;20036;-59
2022/10/11 10:40:55;;;;;;;7.55;4.57;;;;;;;16.17;93.71;98954.94;5084773;27;20117;-58
2022/10/11 10:43:22;;;;;;;6.75;4.30;;;;;;;16.13;90.25;98920.34;5086881;28;20490;-58
2022/10/11 10:46:19;;;;;;;9.23;4.55;;;;;;;16.38;89.05;98953.53;5081613;27;20032;-57
2022/10/11 10:49:00;;;;;;;6.78;3.88;;;;;;;16.51;91.11;98951.94;5081483;27;20059;-58
2022/10/11 10:51:47;;;;;;;7.50;3.90;;;;;;;16.61;87.66;98949.09;5081878;28;20038;-58
2022/10/11 10:54:37;;;;;;;6.55;3.80;;;;;;;16.70;84.29;98955.91;5083929;28;20896;-58
2022/10/11 10:57:12;;;;;;;8.75;4.00;;;;;;;16.72;83.73;98947.88;5082511;28;20043;-58
2022/10/11 10:59:43;;;;;;;6.43;4.13;;;;;;;16.73;83.84;98941.63;5085063;28;20024;-59
2022/10/11 11:02:21;;;;;;;6.38;4.03;;;;;;;16.82;83.66;98942.38;5069679;28;20042;-59
2022/10/11 11:04:59;;;;;;;7.32;4.28;;;;;;;16.89;83.33;98940.69;5083619;28;20136;-60
2022/10/11 11:07:37;;;;;;;7.70;3.92;;;;;;;16.96;82.11;98941.63;5085723;28;20032;-58
2022/10/11 11:10:15;;;;;;;7.80;4.20;;;;;;;16.79;81.96;98901.50;5070062;28;20146;-58
2022/10/11 11:12:45;;;;;;;8.02;4.22;;;;;;;17.04;82.41;98936.28;5080635;28;20030;-59
2022/10/11 11:15:30;;;;;;;6.22;3.90;;;;;;;17.10;82.14;98935.59;5094654;27;20270;-59
2022/10/11 11:18:24;;;;;;;7.03;3.70;;;;;;;16.97;82.38;98909.09;5084294;28;20024;-59
2022/10/11 11:20:56;;;;;;;6.20;3.83;;;;;;;17.19;82.98;98949.44;5079189;28;20031;-59
2022/10/11 11:23:30;;;;;;;8.98;4.20;;;;;;;17.16;82.33;98938.47;5079829;28;20114;-59
2022/10/11 11:26:14;;;;;;;6.18;3.63;;;;;;;17.18;81.03;98939.13;5088252;28;20110;-59
2022/10/11 11:29:10;;;;;;;6.65;4.20;;;;;;;17.13;79.92;98936.22;5082286;28;20131;-59
2022/10/11 11:31:47;;;;;;;7.68;3.35;;;;;;;17.12;76.82;98924.88;5079956;28;20137;-59
2022/10/11 11:34:25;;;;;;;6.55;3.15;;;;;;;17.10;79.43;98927.72;5080085;28;20039;-59
2022/10/11 11:36:55;;;;;;;6.20;3.25;;;;;;;17.11;77.56;98931.16;5081946;28;20114;-59